Time;durP1;ratioP1;P1;durP2;ratioP2;P2;SDS_P1;SDS_P2;PMS_P1;PMS_P2;Temp;Humidity;BMP_temperature;BMP_pressure;BME280_temperature;BME280_humidity;BME280_pressure;Samples;Min_cycle;Max_cycle;Signal;HPM_P1;HPM_P2
2023/04/11 00:01:45;;;;;;;16.55;2.28;;;;;;;12.43;64.25;100890.47;5108303;28;20458;-41
2023/04/11 00:04:11;;;;;;;15.45;2.30;;;;;;;12.22;65.12;100903.38;5104697;28;20442;-41
2023/04/11 00:06:36;;;;;;;17.90;2.75;;;;;;;12.08;65.50;100898.03;5107900;28;20024;-41
2023/04/11 00:09:02;;;;;;;11.68;2.30;;;;;;;12.18;65.64;100901.63;5103542;28;20024;-41
2023/04/11 00:11:27;;;;;;;15.75;2.63;;;;;;;12.60;64.53;100898.41;5107364;28;20038;-43
2023/04/11 00:13:56;;;;;;;12.13;2.17;;;;;;;12.45;64.98;100904.41;5107209;28;20044;-40
2023/04/11 00:16:23;;;;;;;20.25;2.70;;;;;;;12.50;65.54;100907.91;5101475;28;20458;-42
2023/04/11 00:18:49;;;;;;;14.82;2.45;;;;;;;12.45;65.42;100904.41;5104221;28;20027;-41
2023/04/11 00:21:14;;;;;;;14.55;2.03;;;;;;;12.58;65.00;100921.03;5100859;28;20134;-40
2023/04/11 00:23:39;;;;;;;12.75;2.33;;;;;;;12.37;66.20;100910.47;5105056;28;20027;-42
2023/04/11 00:26:06;;;;;;;17.65;2.72;;;;;;;12.30;65.87;100912.16;5101523;28;20374;-42
2023/04/11 00:28:32;;;;;;;12.63;1.95;;;;;;;12.24;66.17;100911.25;5105460;28;20019;-39
2023/04/11 00:30:57;;;;;;;13.43;1.95;;;;;;;12.27;65.59;100888.59;5102601;28;20061;-40
2023/04/11 00:33:22;;;;;;;15.80;1.90;;;;;;;12.31;64.34;100913.03;5105907;28;20493;-40
2023/04/11 00:35:48;;;;;;;9.00;1.60;;;;;;;12.26;64.31;100907.75;5105406;28;20055;-40
2023/04/11 00:38:13;;;;;;;13.88;1.90;;;;;;;12.29;63.45;100913.03;5101384;28;23694;-41
2023/04/11 00:40:39;;;;;;;9.52;1.98;;;;;;;12.20;63.53;100926.00;5105362;28;20323;-41
2023/04/11 00:43:05;;;;;;;15.25;1.80;;;;;;;12.69;62.18;100923.72;5102015;28;20030;-40
2023/04/11 00:45:30;;;;;;;9.85;1.83;;;;;;;12.34;61.74;100924.38;5106957;28;20027;-41
2023/04/11 00:47:56;;;;;;;6.72;1.70;;;;;;;12.16;61.80;100919.88;5102607;28;20035;-40
2023/04/11 00:50:23;;;;;;;10.52;2.28;;;;;;;12.43;61.56;100915.72;5105444;28;20375;-47
2023/04/11 00:52:51;;;;;;;14.63;1.80;;;;;;;12.36;62.04;100916.56;5103308;28;20481;-40
2023/04/11 00:55:17;;;;;;;9.93;1.70;;;;;;;11.96;62.24;100912.75;5100072;28;20032;-40
2023/04/11 00:57:43;;;;;;;7.82;1.80;;;;;;;12.39;61.86;100927.88;5102427;28;20128;-41
2023/04/11 01:00:09;;;;;;;18.73;1.90;;;;;;;12.46;61.66;100923.59;5099177;28;20028;-40
2023/04/11 01:02:36;;;;;;;11.05;1.75;;;;;;;12.47;61.67;100923.59;5085572;28;20404;-43
2023/04/11 01:05:03;;;;;;;10.70;1.45;;;;;;;12.38;61.53;100926.13;5099521;28;20054;-42
2023/04/11 01:07:30;;;;;;;12.57;1.67;;;;;;;12.13;62.21;100929.47;5102414;28;20027;-40
2023/04/11 01:09:57;;;;;;;7.63;1.60;;;;;;;12.01;61.93;100925.00;5081121;28;20043;-40
2023/04/11 01:12:23;;;;;;;12.15;1.83;;;;;;;12.34;60.53;100918.28;5104367;28;20054;-41
2023/04/11 01:14:49;;;;;;;11.40;1.88;;;;;;;12.52;59.64;100928.84;5103093;28;20118;-42
2023/04/11 01:17:15;;;;;;;10.70;1.60;;;;;;;12.19;60.33;100930.38;5099343;28;20119;-40
2023/04/11 01:19:41;;;;;;;8.27;1.33;;;;;;;12.03;60.62;100922.38;5102594;28;20506;-40
2023/04/11 01:22:12;;;;;;;13.02;1.75;;;;;;;12.25;60.47;100932.16;5098301;28;20040;-44
2023/04/11 01:24:47;;;;;;;7.40;1.20;;;;;;;12.00;61.38;100932.84;5030044;28;20040;-44
2023/04/11 01:27:12;;;;;;;10.45;1.52;;;;;;;12.11;60.82;100921.59;5024263;28;20029;-40
2023/04/11 01:29:38;;;;;;;9.07;1.40;;;;;;;12.18;60.56;100927.75;5022551;28;20141;-38
2023/04/11 01:32:04;;;;;;;10.10;1.58;;;;;;;11.90;61.40;100944.03;5018924;28;20488;-39
2023/04/11 01:34:32;;;;;;;16.67;1.83;;;;;;;12.08;60.94;100928.53;5040512;28;20487;-39
2023/04/11 01:36:57;;;;;;;7.38;1.55;;;;;;;12.07;60.64;100926.81;5037095;28;20110;-41
2023/04/11 01:39:23;;;;;;;7.28;1.38;;;;;;;11.88;61.61;100936.22;5043734;28;20037;-39
2023/04/11 01:41:49;;;;;;;10.60;1.60;;;;;;;11.86;61.48;100929.22;5047066;28;20052;-40
2023/04/11 01:44:15;;;;;;;11.57;1.60;;;;;;;11.76;61.85;100942.22;5045923;28;20047;-40
2023/04/11 01:46:42;;;;;;;13.27;1.70;;;;;;;12.23;60.58;100948.69;5048815;28;20032;-46
2023/04/11 01:49:07;;;;;;;9.45;1.63;;;;;;;12.13;61.06;100937.31;5039988;28;20108;-39
2023/04/11 01:51:33;;;;;;;10.07;1.50;;;;;;;11.90;62.06;100955.38;5041594;28;20041;-41
2023/04/11 01:53:58;;;;;;;8.88;1.45;;;;;;;11.78;62.25;100956.13;5012274;28;20484;-39
2023/04/11 01:56:23;;;;;;;11.25;1.58;;;;;;;11.81;61.99;100951.81;5038656;28;20029;-39
2023/04/11 01:58:49;;;;;;;12.18;1.52;;;;;;;11.74;62.28;100966.53;5043112;28;20560;-40
2023/04/11 02:01:18;;;;;;;10.18;1.42;;;;;;;11.43;63.36;100964.44;5022322;28;20135;-38
2023/04/11 02:03:44;;;;;;;12.43;1.70;;;;;;;12.09;61.77;100964.25;5044707;28;20041;-39
2023/04/11 02:06:09;;;;;;;10.82;1.65;;;;;;;12.00;62.05;100974.63;5040023;28;20103;-40
2023/04/11 02:08:35;;;;;;;11.23;1.88;;;;;;;11.81;63.26;100978.81;5045338;28;20025;-39
2023/04/11 02:11:00;;;;;;;13.95;2.00;;;;;;;12.01;62.87;100985.13;5042731;28;20060;-43
2023/04/11 02:13:25;;;;;;;15.63;1.77;;;;;;;12.43;61.83;100979.38;5042346;28;20029;-40
2023/04/11 02:15:50;;;;;;;10.50;1.85;;;;;;;11.98;63.20;100982.44;5043521;28;20033;-40
2023/04/11 02:18:16;;;;;;;16.42;2.20;;;;;;;12.24;63.30;100984.44;5044653;28;20056;-41
2023/04/11 02:20:41;;;;;;;19.00;2.15;;;;;;;11.83;63.60;100984.06;5048184;28;20032;-42
2023/04/11 02:23:06;;;;;;;9.95;1.80;;;;;;;12.18;62.66;100977.41;5042741;28;20037;-40
2023/04/11 02:25:32;;;;;;;14.02;2.63;;;;;;;12.04;62.74;100977.28;5044670;28;20387;-40
2023/04/11 02:27:57;;;;;;;10.35;1.70;;;;;;;11.76;62.74;100970.06;5040487;28;20029;-41
2023/04/11 02:30:23;;;;;;;14.85;1.70;;;;;;;11.45;62.70;100991.44;5045434;28;20063;-41
2023/04/11 02:32:48;;;;;;;9.60;1.88;;;;;;;11.73;62.94;100988.25;5029144;28;20041;-42
2023/04/11 02:35:15;;;;;;;11.88;1.60;;;;;;;11.89;62.27;100987.59;5046129;28;20060;-38
2023/04/11 02:37:41;;;;;;;15.45;1.83;;;;;;;11.78;62.92;100990.09;5050009;28;20036;-42
2023/04/11 02:40:06;;;;;;;11.90;1.92;;;;;;;11.52;64.18;101001.97;5047071;28;20037;-39
2023/04/11 02:42:32;;;;;;;11.43;1.60;;;;;;;11.47;63.93;101002.75;5049573;28;20415;-39
2023/04/11 02:44:57;;;;;;;12.82;1.92;;;;;;;11.45;64.61;101005.38;5046712;28;20036;-40
2023/04/11 02:47:23;;;;;;;11.48;1.73;;;;;;;11.70;64.83;101009.13;5049842;28;20033;-40
2023/04/11 02:49:48;;;;;;;14.85;2.20;;;;;;;11.35;65.38;101001.75;5048987;28;20036;-40
2023/04/11 02:52:13;;;;;;;13.00;1.80;;;;;;;11.37;65.46;101018.31;5044829;28;20603;-40
2023/04/11 02:54:39;;;;;;;8.70;1.33;;;;;;;11.22;66.00;101012.88;5048567;28;20111;-39
2023/04/11 02:57:04;;;;;;;11.27;1.95;;;;;;;11.38;64.80;101013.97;5026358;28;20037;-40
2023/04/11 02:59:30;;;;;;;9.70;1.67;;;;;;;11.68;64.02;101018.69;5048339;28;20040;-39
2023/04/11 03:01:59;;;;;;;11.90;1.95;;;;;;;11.25;65.25;101023.38;5027115;28;20029;-42
2023/04/11 03:04:25;;;;;;;13.75;1.73;;;;;;;11.39;65.05;101018.34;5048027;28;20446;-40
2023/04/11 03:06:51;;;;;;;12.82;1.77;;;;;;;11.64;64.59;101020.41;5047708;28;20652;-40
2023/04/11 03:09:16;;;;;;;12.52;1.88;;;;;;;11.27;65.38;101023.41;5044039;28;20052;-39
2023/04/11 03:11:41;;;;;;;12.30;1.70;;;;;;;11.37;64.87;101012.22;5044576;28;20033;-39
2023/04/11 03:14:07;;;;;;;8.93;1.70;;;;;;;11.13;65.59;101014.50;5041413;28;20470;-39
2023/04/11 03:16:32;;;;;;;10.65;1.80;;;;;;;11.35;65.02;101011.31;5045134;28;20422;-38
2023/04/11 03:18:58;;;;;;;11.68;1.65;;;;;;;11.20;65.03;101032.00;5041582;28;20059;-38
2023/04/11 03:21:23;;;;;;;13.45;1.83;;;;;;;11.22;64.67;101025.94;5046076;28;20032;-38
2023/04/11 03:23:49;;;;;;;12.45;1.73;;;;;;;11.29;63.46;101026.91;5035743;28;20059;-40
2023/04/11 03:26:14;;;;;;;10.73;1.80;;;;;;;11.05;64.49;101029.19;5041002;28;20407;-40
2023/04/11 03:28:40;;;;;;;8.10;1.52;;;;;;;11.36;62.87;101026.13;5044023;28;20029;-39
2023/04/11 03:31:06;;;;;;;12.63;1.60;;;;;;;11.13;63.26;101027.56;5041567;28;20029;-40
2023/04/11 03:33:31;;;;;;;11.13;1.88;;;;;;;11.07;63.54;101041.41;5043697;28;20179;-39
2023/04/11 03:35:56;;;;;;;11.95;1.55;;;;;;;11.23;63.10;101052.91;5037116;28;20032;-39
2023/04/11 03:38:22;;;;;;;8.70;1.50;;;;;;;11.35;62.90;101048.72;5044837;28;20510;-41
2023/04/11 03:40:47;;;;;;;7.75;1.60;;;;;;;11.12;62.25;101051.91;5034935;28;20108;-39
2023/04/11 03:43:12;;;;;;;11.75;1.65;;;;;;;11.11;62.12;101055.34;5040719;28;20033;-39
2023/04/11 03:45:38;;;;;;;8.95;1.67;;;;;;;11.19;61.26;101053.75;5045068;28;20037;-44
2023/04/11 03:48:03;;;;;;;9.50;1.60;;;;;;;10.97;61.66;101050.84;5038787;28;20060;-39
2023/04/11 03:50:29;;;;;;;7.82;1.52;;;;;;;11.32;60.58;101058.28;5046266;28;20025;-40
2023/04/11 03:52:54;;;;;;;9.40;1.75;;;;;;;11.08;60.46;101053.59;5042966;28;20037;-46
2023/04/11 03:55:20;;;;;;;7.68;1.25;;;;;;;10.93;60.26;101062.06;5037940;28;20556;-39
2023/04/11 03:57:45;;;;;;;8.80;1.83;;;;;;;11.05;60.00;101066.59;5046924;28;20040;-41
2023/04/11 04:00:11;;;;;;;7.10;1.30;;;;;;;11.15;59.42;101059.78;5035233;28;20079;-40
2023/04/11 04:02:37;;;;;;;6.43;1.33;;;;;;;11.01;59.16;101067.41;5052297;28;20028;-40
2023/04/11 04:05:02;;;;;;;7.97;1.30;;;;;;;10.86;59.67;101072.38;5039671;28;20048;-39
2023/04/11 04:07:27;;;;;;;11.90;1.45;;;;;;;11.10;59.27;101077.13;5049459;28;20029;-40
2023/04/11 04:09:53;;;;;;;9.23;1.52;;;;;;;10.86;60.08;101088.03;5053448;28;20035;-43
2023/04/11 04:12:22;;;;;;;6.38;1.25;;;;;;;10.97;59.46;101086.47;5040572;28;20061;-39
2023/04/11 04:14:47;;;;;;;11.20;1.65;;;;;;;11.15;59.06;101081.53;5051207;28;20033;-42
2023/04/11 04:17:14;;;;;;;11.88;1.38;;;;;;;10.82;59.55;101086.22;5040951;28;20096;-40
2023/04/11 04:19:40;;;;;;;6.43;1.35;;;;;;;11.01;59.48;101090.88;5049797;28;20025;-41
2023/04/11 04:22:10;;;;;;;9.75;1.42;;;;;;;11.04;59.06;101087.47;5035019;28;20388;-47
2023/04/11 04:24:41;;;;;;;7.82;1.42;;;;;;;10.96;59.40;101093.44;5042530;28;20385;-39
2023/04/11 04:27:09;;;;;;;11.23;1.50;;;;;;;10.92;59.93;101090.72;5020769;28;20056;-38
2023/04/11 04:29:44;;;;;;;12.27;1.60;;;;;;;11.09;59.93;101078.84;5042274;28;20028;-38
2023/04/11 04:32:22;;;;;;;5.65;1.33;;;;;;;10.99;60.11;101087.38;5038435;28;20064;-43
2023/04/11 04:34:54;;;;;;;9.30;1.40;;;;;;;11.18;59.86;101092.00;5040675;28;20331;-41
2023/04/11 04:37:22;;;;;;;10.68;1.45;;;;;;;11.24;60.07;101094.69;5039556;28;20099;-39
2023/04/11 04:39:49;;;;;;;7.95;1.20;;;;;;;10.66;61.93;101110.31;5043806;28;20100;-42
2023/04/11 04:42:16;;;;;;;13.05;1.88;;;;;;;10.89;61.81;101114.19;5040214;28;20498;-39
2023/04/11 04:44:41;;;;;;;10.77;1.40;;;;;;;11.04;61.43;101101.34;5043545;28;20609;-39
2023/04/11 04:47:06;;;;;;;10.07;1.50;;;;;;;10.82;61.92;101117.53;5040016;28;20128;-45
2023/04/11 04:49:32;;;;;;;10.75;1.73;;;;;;;11.01;61.84;101118.69;5044242;28;20029;-40
2023/04/11 04:51:57;;;;;;;11.77;1.63;;;;;;;10.99;62.15;101113.44;5038169;28;20087;-40
2023/04/11 04:54:22;;;;;;;8.32;1.60;;;;;;;10.92;62.37;101116.81;5043974;28;20036;-41
2023/04/11 04:56:48;;;;;;;10.20;1.55;;;;;;;11.37;61.48;101117.50;5044021;28;20122;-40
2023/04/11 04:59:15;;;;;;;10.18;1.60;;;;;;;11.17;62.62;101129.38;5041592;28;20268;-44
2023/04/11 05:01:40;;;;;;;8.90;1.55;;;;;;;11.03;62.56;101130.06;5043460;28;20025;-40
2023/04/11 05:04:06;;;;;;;10.32;1.60;;;;;;;11.06;63.41;101122.25;5043289;28;20032;-41
2023/04/11 05:06:31;;;;;;;9.75;1.40;;;;;;;11.02;63.35;101138.72;5048542;28;20029;-40
2023/04/11 05:08:59;;;;;;;10.75;1.60;;;;;;;10.98;64.03;101149.09;5040944;28;20188;-44
2023/04/11 05:11:25;;;;;;;11.35;1.58;;;;;;;11.40;62.70;101141.03;5042552;28;20469;-39
2023/04/11 05:13:51;;;;;;;10.73;1.60;;;;;;;11.32;63.13;101149.63;5025121;28;20052;-41
2023/04/11 05:16:17;;;;;;;9.90;1.40;;;;;;;11.53;61.86;101146.44;5038951;28;20078;-39
2023/04/11 05:18:43;;;;;;;13.35;2.13;;;;;;;11.37;62.29;101151.44;5043352;28;20067;-43
2023/04/11 05:21:08;;;;;;;8.20;1.60;;;;;;;11.57;61.74;101156.06;5020546;28;20025;-42
2023/04/11 05:23:34;;;;;;;13.35;5.22;;;;;;;11.73;61.31;101166.78;5042348;28;20083;-39
2023/04/11 05:26:00;;;;;;;12.30;1.70;;;;;;;10.87;63.83;101153.25;5037523;28;20048;-40
2023/04/11 05:28:25;;;;;;;14.25;1.83;;;;;;;11.36;62.89;101160.13;5042511;28;20056;-39
2023/04/11 05:30:50;;;;;;;14.38;2.33;;;;;;;11.64;62.33;101165.75;5040706;28;20033;-38
2023/04/11 05:33:16;;;;;;;11.38;1.73;;;;;;;11.56;61.97;101164.75;5038297;28;20037;-40
2023/04/11 05:35:41;;;;;;;11.43;1.70;;;;;;;11.54;62.81;101164.72;5041398;28;20160;-40
2023/04/11 05:38:08;;;;;;;9.30;2.15;;;;;;;11.31;63.34;101167.03;5037731;28;20086;-38
2023/04/11 05:40:34;;;;;;;11.52;2.03;;;;;;;11.80;61.98;101172.97;5041680;28;20487;-40
2023/04/11 05:42:59;;;;;;;8.77;1.67;;;;;;;11.44;62.73;101177.66;5037882;28;20148;-39
2023/04/11 05:45:24;;;;;;;13.75;1.70;;;;;;;11.50;61.88;101173.38;5042853;28;20475;-39
2023/04/11 05:47:50;;;;;;;11.95;1.90;;;;;;;11.67;60.99;101181.44;5041832;28;20038;-40
2023/04/11 05:50:15;;;;;;;9.27;1.90;;;;;;;11.58;61.29;101179.59;5038108;28;20037;-42
2023/04/11 05:52:40;;;;;;;17.23;2.33;;;;;;;11.42;60.61;101185.44;5041813;28;20044;-40
2023/04/11 05:55:06;;;;;;;11.77;2.00;;;;;;;11.51;60.73;101184.72;5037932;28;20025;-42
2023/04/11 05:57:32;;;;;;;14.23;1.90;;;;;;;11.30;61.58;101196.56;5043092;28;20037;-39
2023/04/11 06:00:00;;;;;;;11.95;1.85;;;;;;;11.32;60.81;101192.28;5038916;28;20036;-41
2023/04/11 06:02:26;;;;;;;15.35;1.80;;;;;;;11.62;60.14;101193.56;5042708;28;20033;-43
2023/04/11 06:04:51;;;;;;;12.95;1.80;;;;;;;11.61;60.66;101192.69;5040854;28;20039;-40
2023/04/11 06:07:17;;;;;;;11.68;1.92;;;;;;;11.53;61.14;101206.47;5037159;28;20077;-43
2023/04/11 06:09:43;;;;;;;16.90;2.05;;;;;;;11.46;60.46;101209.88;5030246;28;20106;-39
2023/04/11 06:12:09;;;;;;;12.10;2.20;;;;;;;11.45;60.92;101214.22;5051167;28;20090;-39
2023/04/11 06:14:34;;;;;;;11.98;2.00;;;;;;;11.57;60.64;101224.84;5054948;28;20094;-40
2023/04/11 06:17:00;;;;;;;13.95;1.70;;;;;;;11.67;59.70;101210.19;5046803;28;20021;-40
2023/04/11 06:19:25;;;;;;;10.70;2.05;;;;;;;12.00;59.35;101221.13;5027617;28;20029;-43
2023/04/11 06:21:50;;;;;;;10.10;1.90;;;;;;;12.32;58.01;101218.03;5044878;28;20538;-41
2023/04/11 06:24:17;;;;;;;8.35;1.58;;;;;;;12.65;57.52;101212.28;5041586;28;20124;-40
2023/04/11 06:26:43;;;;;;;16.10;1.75;;;;;;;12.02;59.01;101223.75;5044686;28;20438;-41
2023/04/11 06:29:08;;;;;;;11.40;1.98;;;;;;;12.63;57.23;101219.22;5038892;28;20033;-41
2023/04/11 06:31:33;;;;;;;11.68;1.73;;;;;;;12.63;57.55;101224.47;5044917;28;20035;-38
2023/04/11 06:34:00;;;;;;;16.25;2.28;;;;;;;11.78;60.61;101222.56;5038647;28;20048;-42
2023/04/11 06:36:26;;;;;;;14.15;2.20;;;;;;;11.70;60.31;101221.56;5044497;28;20518;-41
2023/04/11 06:38:51;;;;;;;16.90;2.28;;;;;;;11.88;60.21;101220.97;5044328;28;20060;-44
2023/04/11 06:41:17;;;;;;;10.40;1.95;;;;;;;11.96;59.78;101224.53;5039344;28;20511;-40
2023/04/11 06:43:42;;;;;;;15.27;2.10;;;;;;;12.17;58.27;101224.84;5043275;28;20025;-39
2023/04/11 06:46:07;;;;;;;13.13;2.10;;;;;;;12.77;57.06;101231.59;5040302;28;20094;-39
2023/04/11 06:48:33;;;;;;;11.73;2.03;;;;;;;12.41;56.93;101232.09;5044201;28;20029;-41
2023/04/11 06:50:58;;;;;;;12.23;1.80;;;;;;;13.13;54.50;101243.31;5039978;28;20029;-42
2023/04/11 06:53:23;;;;;;;20.10;2.53;;;;;;;13.46;53.66;101227.00;5044503;28;20029;-40
2023/04/11 06:55:49;;;;;;;12.10;2.22;;;;;;;13.23;53.36;101237.31;5043853;28;20033;-40
2023/04/11 06:58:15;;;;;;;13.43;2.28;;;;;;;13.01;54.82;101250.16;5040863;28;20044;-42
2023/04/11 07:00:40;;;;;;;11.65;2.30;;;;;;;13.05;53.57;101248.47;5043909;28;20090;-39
2023/04/11 07:03:07;;;;;;;13.73;2.20;;;;;;;13.58;52.33;101240.19;5040207;28;20029;-37
2023/04/11 07:05:33;;;;;;;10.07;1.60;;;;;;;14.58;48.93;101254.69;5043596;28;20033;-41
2023/04/11 07:07:59;;;;;;;14.80;2.33;;;;;;;14.43;49.65;101252.03;5039852;28;20029;-37
2023/04/11 07:10:25;;;;;;;18.30;2.20;;;;;;;15.07;48.56;101260.06;5044557;28;20036;-41
2023/04/11 07:12:50;;;;;;;14.30;2.20;;;;;;;13.94;49.84;101268.38;5043896;28;20041;-39
2023/04/11 07:15:15;;;;;;;12.52;2.10;;;;;;;14.04;49.84;101263.19;5040263;28;20426;-37
2023/04/11 07:17:41;;;;;;;11.00;2.00;;;;;;;14.25;49.24;101270.28;5044514;28;20025;-41
2023/04/11 07:20:10;;;;;;;16.70;2.28;;;;;;;13.98;50.04;101276.25;5042831;28;20021;-40
2023/04/11 07:22:38;;;;;;;14.45;1.95;;;;;;;14.35;49.04;101284.31;5068528;22;20029;-41
2023/04/11 07:25:04;;;;;;;12.93;2.10;;;;;;;13.94;50.75;101286.72;5080989;28;20035;-40
2023/04/11 07:27:31;;;;;;;11.88;1.80;;;;;;;15.36;47.97;101273.22;5083676;28;20035;-41
2023/04/11 07:29:57;;;;;;;11.70;2.03;;;;;;;14.71;48.72;101289.72;5080369;28;20024;-38
2023/04/11 07:32:23;;;;;;;15.05;2.08;;;;;;;14.87;48.21;101282.78;5084059;28;20510;-42
2023/04/11 07:34:48;;;;;;;16.05;2.42;;;;;;;14.49;49.17;101287.91;5103611;28;20123;-46
2023/04/11 07:37:13;;;;;;;12.65;1.92;;;;;;;14.64;48.24;101282.69;5098499;28;22833;-44
2023/04/11 07:39:39;;;;;;;11.63;1.90;;;;;;;13.90;49.46;101288.47;5105919;28;20035;-42
2023/04/11 07:42:05;;;;;;;11.50;1.98;;;;;;;14.80;47.84;101288.88;5101760;28;20401;-40
2023/04/11 07:44:31;;;;;;;12.63;1.98;;;;;;;14.21;49.61;101294.72;5105333;28;20282;-42
2023/04/11 07:46:56;;;;;;;10.45;1.90;;;;;;;14.57;48.73;101299.31;5101036;28;20038;-46
2023/04/11 07:49:22;;;;;;;13.15;2.13;;;;;;;14.67;48.40;101305.47;5104008;28;20039;-43
2023/04/11 07:51:47;;;;;;;10.23;2.08;;;;;;;14.14;49.44;101295.59;5104307;28;20066;-42
2023/04/11 07:54:12;;;;;;;9.25;1.77;;;;;;;13.46;50.53;101322.19;5102562;28;20028;-41
2023/04/11 07:56:38;;;;;;;16.60;2.03;;;;;;;13.42;50.40;101316.91;5106881;28;20489;-45
2023/04/11 07:59:03;;;;;;;11.95;1.83;;;;;;;13.42;51.55;101312.50;5100102;28;20034;-44
2023/04/11 08:01:29;;;;;;;15.13;2.15;;;;;;;12.83;52.93;101324.97;5103383;28;20080;-41
2023/04/11 08:03:55;;;;;;;9.52;1.75;;;;;;;12.84;52.95;101321.50;5100909;28;20028;-41
2023/04/11 08:06:21;;;;;;;16.70;1.80;;;;;;;12.95;51.79;101332.97;5102264;28;20046;-43
2023/04/11 08:08:47;;;;;;;11.27;2.03;;;;;;;12.76;51.70;101334.50;5104427;28;20111;-43
2023/04/11 08:11:14;;;;;;;17.60;2.22;;;;;;;12.42;53.52;101343.69;5100288;28;20031;-41
2023/04/11 08:13:39;;;;;;;9.88;2.03;;;;;;;12.12;52.92;101336.28;5103475;28;20054;-43
2023/04/11 08:16:10;;;;;;;9.70;2.03;;;;;;;12.15;52.88;101328.47;5099848;28;20055;-43
2023/04/11 08:18:36;;;;;;;11.50;2.08;;;;;;;11.87;53.25;101349.84;5103347;28;20032;-44
2023/04/11 08:21:02;;;;;;;17.45;1.90;;;;;;;12.29;53.10;101341.75;5083255;28;20504;-43
2023/04/11 08:23:28;;;;;;;10.63;1.90;;;;;;;12.57;52.91;101350.81;5104021;28;20446;-41
2023/04/11 08:25:54;;;;;;;14.32;2.00;;;;;;;12.37;53.70;101358.44;5087018;28;20023;-44
2023/04/11 08:28:20;;;;;;;11.38;1.92;;;;;;;11.74;52.48;101356.59;5079878;28;20097;-40
2023/04/11 08:30:45;;;;;;;11.35;2.03;;;;;;;11.92;53.92;101358.63;5089496;28;20039;-43
2023/04/11 08:33:11;;;;;;;10.80;1.60;;;;;;;12.42;53.23;101361.97;5098613;28;20041;-41
2023/04/11 08:35:36;;;;;;;8.05;1.80;;;;;;;12.29;51.06;101335.63;5105022;28;20038;-42
2023/04/11 08:38:02;;;;;;;8.95;1.70;;;;;;;12.46;51.45;101369.00;5101141;28;20031;-42
2023/04/11 08:40:27;;;;;;;12.52;1.88;;;;;;;12.70;51.01;101365.81;5103865;28;20027;-42
2023/04/11 08:42:59;;;;;;;9.48;1.88;;;;;;;12.45;50.83;101371.59;5103081;28;20042;-41
2023/04/11 08:45:26;;;;;;;7.97;1.33;;;;;;;11.99;50.63;101396.19;5086673;28;20097;-44
2023/04/11 08:47:52;;;;;;;10.30;1.60;;;;;;;12.11;50.00;101365.88;5081345;28;20027;-43
2023/04/11 08:50:17;;;;;;;10.65;1.80;;;;;;;12.68;48.76;101367.56;5077919;28;20587;-45
2023/04/11 08:52:43;;;;;;;9.05;1.70;;;;;;;12.56;49.50;101373.47;5082637;28;20078;-42
2023/04/11 08:55:09;;;;;;;10.85;1.83;;;;;;;12.63;48.43;101370.94;5078150;28;20027;-42
2023/04/11 08:57:36;;;;;;;9.48;1.38;;;;;;;12.58;48.71;101360.44;5081725;28;20024;-46
2023/04/11 09:00:13;;;;;;;11.32;1.60;;;;;;;13.02;48.41;101368.81;5078131;28;20097;-39
2023/04/11 09:03:00;;;;;;;7.93;1.65;;;;;;;12.17;48.81;101363.38;5081950;28;20034;-41
2023/04/11 09:05:26;;;;;;;8.85;1.60;;;;;;;12.52;48.89;101363.84;5086316;28;20489;-41
2023/04/11 09:07:52;;;;;;;7.07;1.40;;;;;;;12.31;48.77;101371.41;5101469;28;20023;-46
2023/04/11 09:10:19;;;;;;;9.80;1.67;;;;;;;12.36;48.21;101367.13;5100994;28;20058;-42
2023/04/11 09:12:44;;;;;;;7.90;1.48;;;;;;;13.10;48.06;101375.03;5106180;28;20506;-44
2023/04/11 09:15:26;;;;;;;8.05;1.48;;;;;;;13.12;47.77;101373.31;5100795;28;20038;-44
2023/04/11 09:17:52;;;;;;;6.03;1.48;;;;;;;13.27;48.32;101383.09;5102941;28;20112;-41
2023/04/11 09:20:25;;;;;;;11.25;1.83;;;;;;;13.19;48.18;101376.88;5098906;28;20151;-43
2023/04/11 09:22:51;;;;;;;14.20;1.60;;;;;;;13.06;46.70;101388.03;5084391;28;20386;-43
2023/04/11 09:25:21;;;;;;;9.15;1.60;;;;;;;13.12;46.70;101378.56;5095800;28;20123;-42
2023/04/11 09:27:47;;;;;;;6.50;1.88;;;;;;;13.02;48.56;101385.41;5093524;28;20045;-40
2023/04/11 09:30:23;;;;;;;13.52;1.80;;;;;;;13.00;48.83;101394.09;5098743;28;20032;-42
2023/04/11 09:32:51;;;;;;;9.07;1.80;;;;;;;13.00;47.83;101389.75;5108087;28;20070;-43
2023/04/11 09:35:22;;;;;;;10.55;2.10;;;;;;;12.84;48.84;101386.94;5105059;28;20443;-41
2023/04/11 09:37:56;;;;;;;13.60;2.00;;;;;;;13.67;47.73;101381.72;5109118;28;20042;-42
2023/04/11 09:40:25;;;;;;;9.00;1.55;;;;;;;13.05;47.88;101391.56;5107520;28;20034;-44
2023/04/11 09:42:57;;;;;;;16.00;1.73;;;;;;;13.10;48.14;101406.44;5109717;28;20103;-43
2023/04/11 09:45:24;;;;;;;11.60;1.90;;;;;;;13.01;47.92;101381.03;5107324;28;20032;-42
2023/04/11 09:47:51;;;;;;;9.57;1.70;;;;;;;13.11;48.51;101392.50;5113624;28;20034;-45
2023/04/11 09:50:17;;;;;;;8.02;1.67;;;;;;;13.08;47.78;101396.81;5107385;28;20042;-41
2023/04/11 09:52:44;;;;;;;8.13;1.60;;;;;;;13.57;47.65;101396.50;5110495;28;20091;-42
2023/04/11 09:55:12;;;;;;;11.00;1.73;;;;;;;13.58;48.74;101400.00;5109414;28;20035;-43
2023/04/11 09:57:44;;;;;;;14.07;2.00;;;;;;;13.37;47.55;101398.91;5106859;28;20032;-41
2023/04/11 10:00:15;;;;;;;12.77;1.70;;;;;;;13.84;47.49;101400.22;5080426;28;20028;-44
2023/04/11 10:02:40;;;;;;;13.30;1.92;;;;;;;13.90;46.12;101392.41;5101212;28;20073;-45
2023/04/11 10:05:07;;;;;;;12.23;2.17;;;;;;;14.19;45.11;101397.00;5098014;28;20066;-43
2023/04/11 10:07:35;;;;;;;12.57;2.00;;;;;;;13.99;45.98;101393.34;5102667;28;20112;-40
2023/04/11 10:10:02;;;;;;;11.35;1.63;;;;;;;14.03;45.71;101397.75;5098226;28;20028;-41
2023/04/11 10:12:31;;;;;;;11.82;1.98;;;;;;;13.81;44.94;101399.34;5102644;28;20118;-42
2023/04/11 10:15:04;;;;;;;11.18;1.70;;;;;;;13.66;45.32;101409.66;5099126;28;20383;-44
2023/04/11 10:17:29;;;;;;;9.50;1.60;;;;;;;13.57;44.68;101401.72;5099653;28;20026;-41
2023/04/11 10:19:55;;;;;;;11.07;1.80;;;;;;;13.85;45.18;101402.84;5103789;28;20114;-40
2023/04/11 10:22:39;;;;;;;7.97;1.70;;;;;;;13.39;45.34;101394.56;5102862;28;20549;-43
2023/04/11 10:25:18;;;;;;;10.85;1.75;;;;;;;13.62;45.41;101393.91;5090381;28;20036;-45
2023/04/11 10:27:48;;;;;;;9.05;1.40;;;;;;;13.25;46.20;101405.75;5090604;28;20059;-42
2023/04/11 10:30:14;;;;;;;9.38;1.75;;;;;;;13.76;46.17;101397.53;5100464;28;20031;-43
2023/04/11 10:32:40;;;;;;;11.27;2.10;;;;;;;13.66;47.99;101396.56;5102998;28;20038;-46
2023/04/11 10:35:20;;;;;;;12.00;1.73;;;;;;;13.79;45.16;101389.69;5099667;28;20031;-42
2023/04/11 10:37:47;;;;;;;12.27;2.25;;;;;;;13.11;46.56;101410.81;5104730;28;20038;-45
2023/04/11 10:40:12;;;;;;;13.13;1.90;;;;;;;13.53;45.50;101404.31;5100756;28;20051;-41
2023/04/11 10:42:42;;;;;;;9.38;1.50;;;;;;;12.95;44.27;101391.44;5104380;28;20542;-40
2023/04/11 10:45:16;;;;;;;9.55;1.77;;;;;;;12.67;45.75;101405.03;5100873;28;20028;-42
2023/04/11 10:48:04;;;;;;;9.25;1.60;;;;;;;13.48;45.52;101401.63;5105094;28;20027;-42
2023/04/11 10:50:29;;;;;;;8.52;1.65;;;;;;;13.52;46.50;101392.97;5092227;28;20043;-43
2023/04/11 10:53:02;;;;;;;11.38;2.05;;;;;;;13.86;46.61;101403.72;5102076;28;20044;-40
2023/04/11 10:55:31;;;;;;;8.18;1.90;;;;;;;13.86;45.94;101396.75;5107993;28;20046;-43
2023/04/11 10:58:06;;;;;;;11.73;1.73;;;;;;;13.75;46.04;101387.91;5106123;28;20393;-42
2023/04/11 11:00:50;;;;;;;10.00;1.67;;;;;;;14.23;45.72;101390.03;5095342;28;20456;-43
2023/04/11 11:03:23;;;;;;;8.90;1.70;;;;;;;14.44;43.29;101387.59;5103593;28;21047;-42
2023/04/11 11:06:02;;;;;;;9.18;1.73;;;;;;;14.44;43.46;101391.97;5109106;28;20043;-48
2023/04/11 11:08:32;;;;;;;8.70;1.60;;;;;;;14.48;43.42;101396.34;5110773;28;20084;-40
2023/04/11 11:11:01;;;;;;;6.85;1.30;;;;;;;14.32;43.68;101399.72;5104885;28;20032;-42
2023/04/11 11:13:43;;;;;;;10.13;1.60;;;;;;;14.60;42.20;101386.78;5101219;28;20115;-42
2023/04/11 11:16:13;;;;;;;8.45;1.60;;;;;;;14.41;41.64;101392.81;5104199;28;20023;-42
2023/04/11 11:18:39;;;;;;;8.13;1.60;;;;;;;14.77;41.01;101399.09;5107201;28;20036;-41